Mayfield Heights, OH (44124)

12:16 PM EDT on August 30, 2014 (GMT -0400)
East Derbyshire | Change Station
CLOSE
Current Station
Personal Weather Station
Location: Cleveland Hts, OH
Elevation: 922 ft
Nearby Weather Stations

Elev 922 ft 41.50 °N, 81.57 °W | Updated 16 seconds ago

Clear
Clear
86.5 °F
Feels Like 86 °F
N
6.0
Wind Variable Wind from NE
Gusts 9.2 mph

Today
High -- | Low -- °F
--% Chance of Precip.
Yesterday
High -- | Low -- °F
Precip. -- in
6:50 AM 8:02 PM
Waxing Crescent, 23% visible
Pressure 29.99 in
Visibility 10.0 miles
Clouds Clear
Heat Index 86 °F
Dew Point 59 °F
Humidity 40%
Rainfall 0.00 in
Snow Depth Not available.
UV 8 out of 12
Pollen 11.00 out of 12
Ozone Good
PM2.5 Moderate
Flu Activity Not available.
METAR KBKL 301553Z 21015G22KT 10SM CLR 31/17 A3000 RMK AO2 SLP154 T03060172

More Conditions Fewer Conditions

Pressure 29.99 in
Visibility 10.0 miles
Clouds Clear
Heat Index 86 °F
Dew Point 59 °F
Humidity 40%
Rainfall 0.00 in
Snow Depth Not available.
UV 8 out of 12
Pollen 11.00 out of 12
Ozone Good
PM2.5 Moderate
Flu Activity Not available.
METAR KBKL 301553Z 21015G22KT 10SM CLR 31/17 A3000 RMK AO2 SLP154 T03060172

More Conditions Fewer Conditions

10-Day Weather Forecast

Almanac

Astronomy

Aug. 30, 2014 Rise Set
Actual Time 6:50 AM EDT 8:02 PM EDT
Civil Twilight 6:22 AM EDT 8:31 PM EDT
Nautical Twilight 5:47 AM EDT 9:05 PM EDT
Astronomical Twilight 5:11 AM EDT 9:41 PM EDT
Moon 11:40 AM EDT 10:32 PM EDT
Length of Visible Light 14h 09m
Length of Day
13h 12m
Tomorrow will be 2m 39s shorter.
Waxing Crescent, 23% of the Moon is Illuminated
Today
Waxing Crescent
Sep 2
First Quarter
Sep 8
Full
Sep 15
Last Quarter
Sep 24
New

Today's Extremes

State Highs State Lows

Community

WunderPhotos

Upload Photos

1,748,556 photos uploaded!

WunderBlogs® & News

Nearby

Air Quality

  Air Quality AQ Index Pollutant
Yesterday Good
PM10
Yesterday Good
OZONE
Current Moderate
PM2.5
Current Good
OZONE
Saturday Moderate
PM2.5
Saturday Good
OZONE
Sunday Good
PM2.5
Sunday Good
OZONE
Monday Good
PM2.5
Monday Good
OZONE
Tuesday Good
PM2.5
Tuesday Good
OZONE

Snow Depth

Station Depth Elevation
No new snow has been reported.

Earthquake Activity

City Distance Mag. Time & Date
No recent earthquake activity has been reported nearby.
Minimum magnitude displayed is 2.5.

Coastal Water Temperatures

Place Temperature
Cleveland, OH 71.1 °F
Fairport, OH 73.0 °F

Nearby Weather Stations